createdAt,value
2022-10-23T12:16:21.218Z,7.60
2022-10-23T12:18:54.300Z,5.40
2022-10-23T12:21:28.056Z,6.73
2022-10-23T12:24:39.529Z,8.07
2022-10-23T12:27:32.284Z,4.93
2022-10-23T12:30:12.432Z,5.10
2022-10-23T12:32:54.162Z,4.30
2022-10-23T12:36:04.194Z,4.70
2022-10-23T12:38:33.970Z,6.17
2022-10-23T12:41:13.028Z,6.93
2022-10-23T12:43:42.351Z,6.20
2022-10-23T12:46:17.661Z,14.20
2022-10-23T12:48:49.906Z,5.17
2022-10-23T12:51:28.388Z,6.63
2022-10-23T12:53:55.154Z,7.83
2022-10-23T12:56:22.489Z,4.93
2022-10-23T12:59:00.528Z,5.40
2022-10-23T13:01:33.199Z,4.77
2022-10-23T13:04:05.217Z,6.03
2022-10-23T13:06:32.282Z,5.63
2022-10-23T13:08:59.173Z,5.70
2022-10-23T13:11:26.536Z,5.67
2022-10-23T13:13:53.504Z,4.90
2022-10-23T13:16:23.669Z,5.90
2022-10-23T13:18:51.166Z,5.97
2022-10-23T13:21:23.495Z,6.13
2022-10-23T13:23:51.464Z,5.40
2022-10-23T13:26:47.702Z,5.70
2022-10-23T13:29:21.704Z,6.10
2022-10-23T13:31:49.194Z,5.17
2022-10-23T13:34:30.331Z,5.37
2022-10-23T13:37:19.982Z,4.97
2022-10-23T13:39:46.660Z,4.73
2022-10-23T13:42:14.830Z,5.50
2022-10-23T13:44:41.895Z,6.30
2022-10-23T13:47:13.163Z,7.30
2022-10-23T13:49:39.858Z,4.83
2022-10-23T13:52:12.555Z,4.83
2022-10-23T13:54:39.237Z,5.20
2022-10-23T13:57:11.306Z,4.87
2022-10-23T13:59:37.939Z,8.17
2022-10-23T14:02:20.941Z,5.27
2022-10-23T14:04:51.422Z,4.50
2022-10-23T14:07:18.715Z,6.33
2022-10-23T14:09:45.535Z,9.90
2022-10-23T14:12:13.470Z,5.80
2022-10-23T14:14:40.104Z,6.70
2022-10-23T14:17:06.750Z,5.17
2022-10-23T14:19:34.347Z,19.73
2022-10-23T14:22:01.038Z,8.53
2022-10-23T14:24:27.639Z,5.80
2022-10-23T14:26:54.280Z,6.33
2022-10-23T14:29:24.058Z,7.47
2022-10-23T14:31:51.439Z,6.90
2022-10-23T14:34:18.037Z,7.43
2022-10-23T14:36:50.262Z,7.93
2022-10-23T14:39:23.424Z,5.70
2022-10-23T14:41:50.145Z,23.70
2022-10-23T14:44:16.721Z,36.97
2022-10-23T14:46:43.440Z,144.10
2022-10-23T14:49:10.066Z,65.83
2022-10-23T14:51:36.847Z,61.47
2022-10-23T14:54:05.748Z,43.20
2022-10-23T14:56:35.395Z,113.43
2022-10-23T14:59:04.861Z,89.10
2022-10-23T15:01:40.133Z,125.87
2022-10-23T15:04:09.873Z,28.23
2022-10-23T15:06:37.630Z,71.37
2022-10-23T15:09:04.957Z,30.30
2022-10-23T15:11:31.788Z,18.17
2022-10-23T15:13:59.622Z,5.97
2022-10-23T15:16:26.452Z,10.47
2022-10-23T15:18:53.275Z,8.40
2022-10-23T15:21:20.029Z,11.37
2022-10-23T15:23:47.145Z,8.90
2022-10-23T15:26:23.145Z,6.50
2022-10-23T15:28:59.221Z,9.50
2022-10-23T15:31:37.930Z,6.70
2022-10-23T15:34:05.748Z,10.70
2022-10-23T15:36:32.933Z,9.00
2022-10-23T15:38:59.636Z,6.73
2022-10-23T15:41:34.287Z,10.50
2022-10-23T15:44:02.713Z,10.03
2022-10-23T15:46:30.002Z,5.73
2022-10-23T15:48:56.710Z,6.23
2022-10-23T15:51:23.405Z,6.67
2022-10-23T15:53:50.027Z,6.07
2022-10-23T15:56:16.799Z,8.10
2022-10-23T15:58:43.568Z,10.30
2022-10-23T16:01:10.528Z,8.60
2022-10-23T16:03:38.942Z,8.70
2022-10-23T16:06:07.646Z,5.70
2022-10-23T16:08:34.973Z,6.50
2022-10-23T16:11:02.894Z,5.13
2022-10-23T16:13:29.538Z,7.27
2022-10-23T16:15:56.258Z,5.13
2022-10-23T16:18:23.665Z,6.67
2022-10-23T16:20:55.442Z,13.10
2022-10-23T16:23:22.233Z,7.27
2022-10-23T16:25:49.047Z,6.30
2022-10-23T16:28:15.634Z,7.20
2022-10-23T16:30:43.452Z,8.93
2022-10-23T16:33:10.430Z,9.03
2022-10-23T16:35:37.271Z,6.83
2022-10-23T16:38:04.785Z,6.00
2022-10-23T16:40:31.410Z,7.00
2022-10-23T16:42:58.770Z,8.50
2022-10-23T16:45:25.462Z,7.60
2022-10-23T16:47:52.075Z,6.90
2022-10-23T16:50:18.798Z,6.90
2022-10-23T16:52:45.741Z,6.53
2022-10-23T16:55:12.939Z,7.17
2022-10-23T16:57:39.623Z,7.30
2022-10-23T17:00:07.002Z,7.77
2022-10-23T17:02:33.716Z,12.03
2022-10-23T17:05:00.535Z,7.63
2022-10-23T17:07:27.135Z,7.33
2022-10-23T17:09:53.781Z,10.97
2022-10-23T17:12:20.416Z,6.50
2022-10-23T17:14:47.067Z,7.67
2022-10-23T17:17:13.680Z,9.63
2022-10-23T17:19:45.545Z,9.00
2022-10-23T17:22:13.671Z,13.43
2022-10-23T17:24:41.951Z,9.20
2022-10-23T17:27:08.987Z,7.40
2022-10-23T17:29:35.807Z,9.97
2022-10-23T17:32:02.700Z,11.83
2022-10-23T17:34:29.560Z,9.37
2022-10-23T17:36:56.619Z,11.40
2022-10-23T17:39:28.673Z,8.67
2022-10-23T17:41:55.924Z,9.27
2022-10-23T17:44:22.965Z,12.03
2022-10-23T17:46:53.147Z,9.87
2022-10-23T17:49:20.650Z,9.20
2022-10-23T17:51:52.012Z,10.57
2022-10-23T17:54:18.645Z,11.70
2022-10-23T17:56:45.299Z,8.57
2022-10-23T17:59:14.897Z,11.07
2022-10-23T18:01:46.803Z,8.83
2022-10-23T18:04:15.227Z,9.00
2022-10-23T18:06:46.951Z,7.20
2022-10-23T18:09:13.970Z,23.27
2022-10-23T18:11:46.944Z,11.80
2022-10-23T18:14:15.795Z,9.93
2022-10-23T18:16:42.733Z,14.23
2022-10-23T18:19:10.593Z,8.70
2022-10-23T18:21:37.960Z,8.50
2022-10-23T18:24:04.903Z,8.93
2022-10-23T18:26:35.021Z,8.23
2022-10-23T18:29:04.929Z,9.13
2022-10-23T18:31:31.790Z,13.93
2022-10-23T18:34:01.450Z,9.97
2022-10-23T18:36:31.874Z,10.00
2022-10-23T18:38:59.110Z,10.17
2022-10-23T18:41:26.778Z,10.33
2022-10-23T18:43:54.134Z,8.73
2022-10-23T18:46:21.466Z,11.00
2022-10-23T18:48:50.509Z,9.27
2022-10-23T18:51:20.238Z,9.60
2022-10-23T18:53:47.485Z,12.10
2022-10-23T18:56:16.102Z,15.03
2022-10-23T18:58:42.828Z,14.90
2022-10-23T19:01:09.494Z,10.60
2022-10-23T19:03:36.155Z,8.47
2022-10-23T19:06:05.151Z,13.50
2022-10-23T19:08:31.817Z,13.03
2022-10-23T19:11:00.284Z,9.10
2022-10-23T19:13:27.274Z,8.77
2022-10-23T19:15:54.048Z,9.90
2022-10-23T19:18:20.788Z,14.27
2022-10-23T19:20:47.629Z,9.73
2022-10-23T19:23:15.962Z,14.63
2022-10-23T19:25:45.207Z,11.80
2022-10-23T19:28:11.847Z,11.70
2022-10-23T19:30:39.242Z,13.13
2022-10-23T19:33:05.889Z,16.40
2022-10-23T19:35:32.532Z,11.87
2022-10-23T19:37:59.191Z,15.60
2022-10-23T19:40:25.935Z,12.30
2022-10-23T19:42:54.177Z,14.63
2022-10-23T19:45:20.950Z,9.07
2022-10-23T19:47:47.931Z,8.37
2022-10-23T19:50:14.872Z,10.10
2022-10-23T19:52:41.482Z,10.17
2022-10-23T19:55:08.992Z,13.90
2022-10-23T19:57:36.949Z,12.00
2022-10-23T20:00:06.476Z,8.90
